Impacts METAR Board
IDs:

KPIT - Pittsburgh Intl, PA, US

Updated at: 1900 UTC 23 Jun 2018
Potential Impact None Slight Moderate High
Time 23/07Z 23/08Z 23/09Z 23/10Z 23/11Z 23/12Z 23/13Z 23/14Z 23/15Z 23/16Z 23/17Z 23/18Z 23/19Z
Temp66 66 65 64 65 66 69 70 69 72 74 74 78
Dewpt61 61 63 63 63 64 65 65 66 66 65 66 63
Altim29.76 29.76 29.76 29.75 29.77 29.78 29.79 29.79 29.78 29.78 29.77 29.76 29.75
VIS10 10 6 10 10 10 7 10 7 10 10 10 10
CIG140 95 48 36 15 24 24 15 18 25 30 -- 40
CoverOVCOVCOVCOVCOVCBKNBKNOVCBKNBKNBKNSCTBKN
FltCatVFRVFRVFRVFRMVFRMVFRMVFRMVFRMVFRMVFRMVFRVFRVFR
WX---RA-RA BR-------RA---RA--------
WDir1201300120170190210220210220210230240
WSpd8 6 3 5 3 5 8 10 7 10 9 9 9
WGst-- -- -- -- -- -- -- -- -- -- -- -- --
Raw hourly METARs
KPIT 230651Z 12008KT 10SM FEW075 OVC140 19/16 A2976 RMK AO2 SLP078 T01890161
KPIT 230751Z 13006KT 10SM -RA SCT050 BKN095 OVC140 19/16 A2976 RMK AO2 RAB49 SLP078 P0000 T01890161
KPIT 230851Z VRB03KT 6SM -RA BR FEW017 BKN048 OVC055 18/17 A2976 RMK AO2 SLP077 P0008 60008 T01830172 56004
KPIT 230951Z 12005KT 10SM SCT025 BKN036 OVC050 18/17 A2975 RMK AO2 LTG DSNT NE RAE49 SLP077 P0014 T01780172
KPIT 231051Z 17003KT 10SM OVC015 18/17 A2977 RMK AO2 SLP081 T01830172
KPIT 231151Z 19005KT 10SM SCT011 BKN024 BKN120 19/18 A2978 RMK AO2 SLP085 60022 70025 T01890178 10194 20178 53007
KPIT 231304Z 21008KT 7SM -RA SCT012 BKN024 BKN045 21/18 A2979 RMK AO2 RAB02 P0000 T02060183
KPIT 231351Z 22010KT 10SM BKN015 BKN020 OVC026 21/18 A2979 RMK AO2 RAB02E17 SLP087 BINOVC P0000 T02110183
KPIT 231451Z 21007KT 7SM -RA SCT013 BKN018 BKN050 21/19 A2978 RMK AO2 RAB21 SLP085 P0005 60005 T02060189 58000
KPIT 231551Z 22010KT 10SM SCT017 BKN025 BKN060 22/19 A2978 RMK AO2 RAE06 SLP084 P0001 T02220189
KPIT 231651Z 21009KT 10SM SCT017 BKN030 BKN060 23/18 A2977 RMK AO2 LTG DSNT N SLP079 MDT CU T02330183
KPIT 231751Z 23009KT 10SM FEW020 SCT045 SCT150 23/19 A2976 RMK AO2 LTG DSNT N AND NE RAB08E48 SLP078 MDT CU P0000 60006 T02330189 10239 20189 58005
KPIT 231851Z 24009KT 10SM SCT025 BKN040 BKN120 26/17 A2975 RMK AO2 LTG DSNT N SLP072 MDT CU VCSH W-N T02560172



Page loaded:  19:34 UTC  |   12:34 PM Pacific  |   01:34 PM Mountain  |   02:34 PM Central  |   03:34 PM Eastern

 

ADVISORIES

FORECASTS

FORECASTS

OBSERVATIONS

USER TOOLS

ABOUT US